Time;durP1;ratioP1;P1;durP2;ratioP2;P2;SDS_P1;SDS_P2;PMS_P1;PMS_P2;Temp;Humidity;BMP_temperature;BMP_pressure;BME280_temperature;BME280_humidity;BME280_pressure;Samples;Min_cycle;Max_cycle;Signal;HPM_P1;HPM_P2
2024/01/09 07:58:39;;;;;;;4.53;2.75;;;4.20;66.50;;;;;;5052920;27;20470;-75
2024/01/09 08:01:05;;;;;;;2.92;2.35;;;4.20;67.50;;;;;;5042229;28;79463;-75
2024/01/09 08:03:30;;;;;;;3.53;2.55;;;4.20;67.40;;;;;;5045641;28;20045;-76
2024/01/09 08:05:56;;;;;;;3.78;2.50;;;4.30;67.50;;;;;;5047311;28;20044;-76
2024/01/09 08:08:22;;;;;;;2.83;2.33;;;4.20;67.50;;;;;;5047048;28;20037;-77
2024/01/09 08:10:47;;;;;;;2.30;2.08;;;4.30;67.70;;;;;;5031945;28;20077;-77
2024/01/09 08:13:13;;;;;;;3.17;2.67;;;4.30;67.40;;;;;;5027897;28;20131;-77
2024/01/09 08:15:38;;;;;;;2.58;2.22;;;4.30;67.40;;;;;;5049865;28;20123;-75
2024/01/09 08:18:04;;;;;;;2.60;2.40;;;4.40;67.60;;;;;;5047831;28;20045;-75
2024/01/09 08:20:30;;;;;;;3.33;2.28;;;4.30;67.60;;;;;;5047291;28;20128;-76
2024/01/09 08:22:56;;;;;;;4.90;2.50;;;4.30;67.30;;;;;;5050599;28;20029;-77
2024/01/09 08:25:21;;;;;;;3.08;2.53;;;4.30;67.20;;;;;;5049373;28;20036;-76
2024/01/09 08:27:47;;;;;;;3.05;2.47;;;4.40;67.70;;;;;;5050987;28;20397;-77
2024/01/09 08:30:13;;;;;;;3.85;2.35;;;4.30;66.90;;;;;;5035289;28;20166;-75
2024/01/09 08:32:39;;;;;;;2.83;2.45;;;4.30;66.60;;;;;;5030676;28;20040;-76
2024/01/09 08:35:05;;;;;;;3.03;1.98;;;4.40;66.80;;;;;;5050354;28;20041;-76
2024/01/09 08:37:30;;;;;;;4.10;2.45;;;4.30;66.70;;;;;;5049414;28;20044;-75
2024/01/09 08:39:56;;;;;;;4.35;2.38;;;4.30;66.60;;;;;;5047996;28;20048;-77
2024/01/09 08:42:22;;;;;;;3.28;2.65;;;4.40;66.80;;;;;;5046407;28;20392;-77
2024/01/09 08:44:47;;;;;;;3.28;2.42;;;4.40;66.80;;;;;;5035121;28;20045;-77
2024/01/09 08:47:13;;;;;;;3.95;2.38;;;4.40;66.70;;;;;;5028708;28;20048;-76
2024/01/09 08:49:39;;;;;;;3.97;2.50;;;4.40;66.80;;;;;;5027891;28;20094;-76
2024/01/09 08:52:05;;;;;;;3.40;2.88;;;4.40;66.90;;;;;;5044991;28;20064;-76
2024/01/09 08:54:31;;;;;;;2.95;2.38;;;4.40;66.90;;;;;;5077427;28;20045;-76
2024/01/09 08:56:56;;;;;;;3.92;2.85;;;4.40;67.10;;;;;;5045888;28;20079;-76
2024/01/09 08:59:22;;;;;;;5.10;2.60;;;4.40;67.00;;;;;;5078148;28;20052;-76
2024/01/09 09:01:48;;;;;;;2.97;2.25;;;4.50;66.90;;;;;;5045902;28;20123;-76
2024/01/09 09:04:13;;;;;;;3.25;2.50;;;4.50;67.10;;;;;;5039184;28;20119;-77
2024/01/09 09:06:39;;;;;;;3.30;2.60;;;4.50;67.00;;;;;;5045063;28;20055;-76
2024/01/09 09:09:05;;;;;;;3.72;2.97;;;4.50;67.00;;;;;;5021188;28;20044;-77
2024/01/09 09:11:32;;;;;;;3.72;2.55;;;4.50;66.80;;;;;;5032706;28;20052;-76
2024/01/09 09:13:58;;;;;;;3.15;2.03;;;4.50;66.60;;;;;;5017475;28;20452;-76
2024/01/09 09:16:28;;;;;;;4.63;2.80;;;4.50;66.50;;;;;;5032901;28;20033;-76
2024/01/09 09:18:54;;;;;;;4.45;2.45;;;4.50;66.70;;;;;;5049922;28;20049;-76
2024/01/09 09:21:20;;;;;;;3.60;2.03;;;4.50;66.50;;;;;;5032746;28;20124;-76
2024/01/09 09:23:45;;;;;;;3.40;2.67;;;4.50;66.60;;;;;;5032860;28;20044;-76
2024/01/09 09:26:12;;;;;;;2.97;2.20;;;4.50;66.80;;;;;;5031317;28;20124;-76
2024/01/09 09:28:38;;;;;;;4.32;2.55;;;4.50;66.70;;;;;;5032429;28;20368;-77
2024/01/09 09:31:04;;;;;;;2.83;2.38;;;4.50;66.80;;;;;;5032324;28;20120;-76
2024/01/09 09:33:32;;;;;;;3.45;2.53;;;4.50;66.70;;;;;;5030500;28;20091;-76
2024/01/09 09:35:58;;;;;;;3.15;2.85;;;4.50;66.70;;;;;;5025675;28;20504;-75
2024/01/09 09:38:24;;;;;;;4.90;2.72;;;4.50;66.50;;;;;;5012205;28;20060;-77
2024/01/09 09:40:51;;;;;;;5.13;2.60;;;4.50;66.50;;;;;;5014304;28;20527;-77
2024/01/09 09:43:24;;;;;;;3.20;2.67;;;4.60;66.60;;;;;;5032573;28;20073;-77
2024/01/09 09:45:54;;;;;;;2.95;2.70;;;4.50;66.20;;;;;;5033434;28;20048;-77
2024/01/09 09:48:23;;;;;;;3.85;1.95;;;4.50;66.40;;;;;;5015371;28;20120;-76
2024/01/09 09:50:54;;;;;;;3.22;2.38;;;4.50;66.40;;;;;;5035271;28;20118;-76
2024/01/09 09:53:22;;;;;;;2.70;2.00;;;4.60;66.50;;;;;;5031372;28;20544;-75
2024/01/09 09:55:48;;;;;;;3.45;2.55;;;4.50;66.10;;;;;;5034137;28;20064;-77
2024/01/09 09:58:14;;;;;;;4.20;2.15;;;4.50;66.80;;;;;;5014487;28;20462;-75
2024/01/09 10:00:40;;;;;;;3.67;2.38;;;4.50;66.30;;;;;;5064450;28;20081;-75
2024/01/09 10:03:08;;;;;;;3.75;2.45;;;4.50;65.90;;;;;;5032039;28;20379;-76
2024/01/09 10:05:38;;;;;;;2.78;2.10;;;4.50;66.00;;;;;;5032400;28;20041;-77
2024/01/09 10:08:07;;;;;;;4.20;2.47;;;4.50;65.90;;;;;;5030696;28;20512;-77
2024/01/09 10:10:33;;;;;;;2.85;2.25;;;4.50;65.80;;;;;;5030495;28;20528;-75
2024/01/09 10:12:59;;;;;;;4.15;2.28;;;4.50;65.30;;;;;;5030237;28;20046;-76
2024/01/09 10:15:25;;;;;;;2.70;2.30;;;4.50;65.10;;;;;;5031005;28;20044;-75
2024/01/09 10:17:52;;;;;;;2.90;2.38;;;4.40;65.00;;;;;;5039695;28;20038;-75
2024/01/09 10:20:18;;;;;;;2.80;2.47;;;4.40;65.10;;;;;;5033680;28;20096;-75
2024/01/09 10:22:43;;;;;;;3.08;2.22;;;4.50;64.90;;;;;;5014571;28;20289;-75
2024/01/09 10:25:12;;;;;;;3.03;2.55;;;4.40;65.20;;;;;;5030761;28;20131;-76
2024/01/09 10:27:39;;;;;;;5.25;3.10;;;4.40;65.20;;;;;;5036573;28;20203;-75
2024/01/09 10:30:07;;;;;;;3.43;2.03;;;4.40;65.00;;;;;;5029714;28;20112;-75
2024/01/09 10:32:34;;;;;;;4.03;2.70;;;4.40;65.20;;;;;;5030709;28;20038;-75
2024/01/09 10:35:00;;;;;;;2.85;2.20;;;4.40;65.10;;;;;;5030521;28;20500;-74
2024/01/09 10:37:26;;;;;;;4.10;2.20;;;4.50;65.10;;;;;;5031613;28;20059;-76
2024/01/09 10:39:52;;;;;;;2.90;2.58;;;4.50;65.00;;;;;;5063581;28;20041;-76
2024/01/09 10:42:18;;;;;;;4.32;2.30;;;4.50;64.70;;;;;;5030008;28;20037;-76
2024/01/09 10:44:47;;;;;;;2.28;2.08;;;4.40;64.80;;;;;;5013573;28;20056;-75
2024/01/09 10:47:14;;;;;;;4.18;2.30;;;4.40;64.80;;;;;;5013690;28;20120;-74
2024/01/09 10:49:41;;;;;;;3.00;1.98;;;4.40;64.70;;;;;;5032839;28;20488;-75
2024/01/09 10:52:16;;;;;;;3.38;2.22;;;4.40;64.60;;;;;;5045171;28;20432;-75
2024/01/09 10:54:45;;;;;;;5.03;2.17;;;4.40;64.90;;;;;;5014760;28;20132;-75
2024/01/09 10:57:15;;;;;;;4.65;2.45;;;4.40;65.00;;;;;;5030030;28;20128;-75
2024/01/09 10:59:43;;;;;;;3.75;2.20;;;4.50;65.00;;;;;;5035354;28;20048;-74
2024/01/09 11:02:32;;;;;;;2.75;2.28;;;4.40;64.90;;;;;;5017482;28;20051;-75
2024/01/09 11:04:58;;;;;;;3.20;1.92;;;4.50;64.30;;;;;;5034331;28;20068;-75
2024/01/09 11:07:25;;;;;;;3.10;2.20;;;4.40;64.60;;;;;;5029709;28;20064;-75
2024/01/09 11:09:53;;;;;;;4.60;2.20;;;4.50;64.30;;;;;;5029738;28;20038;-75
2024/01/09 11:12:28;;;;;;;2.30;1.65;;;4.40;64.20;;;;;;5031522;28;20056;-76
2024/01/09 11:15:02;;;;;;;2.80;1.98;;;4.40;64.00;;;;;;5030094;28;20103;-76
2024/01/09 11:17:29;;;;;;;2.08;1.85;;;4.40;64.20;;;;;;5029518;28;20045;-75
2024/01/09 11:19:55;;;;;;;2.50;2.00;;;4.40;64.20;;;;;;5030982;28;20056;-75
2024/01/09 11:22:20;;;;;;;3.13;2.20;;;4.50;64.30;;;;;;5063384;28;20037;-76
2024/01/09 11:24:48;;;;;;;2.40;2.20;;;4.40;64.20;;;;;;5064051;28;20045;-75
2024/01/09 11:27:17;;;;;;;4.13;2.57;;;4.40;64.10;;;;;;5029953;28;20053;-75
2024/01/09 11:29:53;;;;;;;3.33;2.50;;;4.40;63.90;;;;;;5029406;28;20053;-76
2024/01/09 11:32:27;;;;;;;2.45;2.10;;;4.50;63.70;;;;;;5029046;28;20291;-76
2024/01/09 11:35:10;;;;;;;2.33;1.80;;;4.40;63.90;;;;;;5013229;28;20049;-75
2024/01/09 11:37:40;;;;;;;3.92;2.13;;;4.40;63.80;;;;;;5029633;28;20412;-75
2024/01/09 11:40:08;;;;;;;4.03;2.42;;;4.50;64.00;;;;;;5061628;28;20033;-76
2024/01/09 11:42:38;;;;;;;2.80;2.17;;;4.40;64.00;;;;;;5033759;28;20048;-76
2024/01/09 11:45:07;;;;;;;2.65;2.15;;;4.40;64.20;;;;;;5032325;28;20120;-76
2024/01/09 11:47:36;;;;;;;2.35;2.15;;;4.50;64.20;;;;;;5038244;28;20044;-76
2024/01/09 11:50:05;;;;;;;2.85;2.47;;;4.40;64.00;;;;;;5020032;28;20116;-76
2024/01/09 11:52:31;;;;;;;3.17;2.28;;;4.50;63.90;;;;;;5062246;28;20037;-76
2024/01/09 11:54:57;;;;;;;2.22;2.00;;;4.50;63.70;;;;;;5060893;28;20562;-76
2024/01/09 11:57:23;;;;;;;2.72;2.30;;;4.40;64.10;;;;;;5013063;28;20057;-76
2024/01/09 11:59:49;;;;;;;3.28;2.28;;;4.50;64.10;;;;;;5031658;28;20045;-76
2024/01/09 12:02:19;;;;;;;2.75;2.33;;;4.50;64.30;;;;;;5016760;28;20139;-76
2024/01/09 12:04:45;;;;;;;3.08;2.50;;;4.50;64.00;;;;;;5032036;28;20505;-76
2024/01/09 12:07:12;;;;;;;2.90;2.20;;;4.50;64.00;;;;;;5045566;28;20033;-76
2024/01/09 12:09:40;;;;;;;4.38;2.17;;;4.50;64.00;;;;;;5017584;28;20046;-76
2024/01/09 12:12:10;;;;;;;2.30;1.98;;;4.50;63.80;;;;;;5027606;28;20440;-76
2024/01/09 12:14:35;;;;;;;4.80;2.28;;;4.50;63.70;;;;;;5027061;28;20049;-76
2024/01/09 12:17:19;;;;;;;3.65;2.35;;;4.50;63.70;;;;;;5020837;28;20049;-76
2024/01/09 12:19:45;;;;;;;2.30;2.10;;;4.50;64.30;;;;;;5024571;28;20417;-76
2024/01/09 12:22:12;;;;;;;3.30;2.20;;;4.50;63.60;;;;;;5025480;28;20048;-75
2024/01/09 12:24:38;;;;;;;4.70;2.15;;;4.50;63.70;;;;;;5027213;28;20504;-75
2024/01/09 12:27:04;;;;;;;3.53;2.30;;;4.50;63.70;;;;;;5011167;28;20038;-75
2024/01/09 12:29:31;;;;;;;2.40;2.17;;;4.50;63.80;;;;;;5028896;28;20080;-75
2024/01/09 12:31:57;;;;;;;2.58;2.00;;;4.50;63.50;;;;;;5025539;28;20425;-75
2024/01/09 12:34:22;;;;;;;2.42;2.22;;;4.50;63.50;;;;;;5004757;28;20037;-75
2024/01/09 12:36:49;;;;;;;3.22;2.30;;;4.50;63.70;;;;;;5028472;28;20085;-75
2024/01/09 12:39:19;;;;;;;3.55;2.20;;;4.50;63.40;;;;;;5028971;28;20061;-75
2024/01/09 12:41:45;;;;;;;2.92;2.38;;;4.40;63.40;;;;;;5061209;28;20045;-75
2024/01/09 12:44:14;;;;;;;2.67;2.22;;;4.40;63.60;;;;;;5011567;28;20076;-75
2024/01/09 12:46:47;;;;;;;2.20;1.98;;;4.50;63.30;;;;;;5048516;28;20485;-75
2024/01/09 12:49:12;;;;;;;2.40;1.80;;;4.40;63.00;;;;;;5032172;28;20129;-73
2024/01/09 12:51:38;;;;;;;2.72;2.15;;;4.40;63.20;;;;;;5034503;28;20124;-76
2024/01/09 12:54:04;;;;;;;3.25;2.47;;;4.40;63.00;;;;;;5031990;28;20393;-76
2024/01/09 12:56:29;;;;;;;3.03;2.30;;;4.40;63.00;;;;;;5032093;28;20041;-74
2024/01/09 12:58:55;;;;;;;2.80;2.08;;;4.40;63.10;;;;;;5032080;28;20477;-75
2024/01/09 13:01:21;;;;;;;3.60;2.15;;;4.40;62.70;;;;;;5021046;28;20096;-74
2024/01/09 13:03:47;;;;;;;2.58;2.38;;;4.40;62.70;;;;;;5039342;28;20029;-74
2024/01/09 13:06:13;;;;;;;5.60;2.30;;;4.40;62.80;;;;;;5037634;28;20439;-75
2024/01/09 13:08:40;;;;;;;2.00;1.73;;;4.40;62.60;;;;;;5037033;28;20083;-75
2024/01/09 13:11:09;;;;;;;2.10;1.90;;;4.40;62.60;;;;;;5037399;28;20535;-76
2024/01/09 13:13:35;;;;;;;2.38;2.13;;;4.30;63.40;;;;;;5038104;28;20559;-74
2024/01/09 13:16:06;;;;;;;3.05;2.00;;;4.30;62.60;;;;;;5041205;28;20060;-74
2024/01/09 13:18:33;;;;;;;2.60;2.40;;;4.40;62.70;;;;;;5017903;28;20085;-75
2024/01/09 13:20:59;;;;;;;3.35;2.00;;;4.40;62.80;;;;;;5027513;28;20029;-75
2024/01/09 13:23:25;;;;;;;2.78;2.33;;;4.40;62.90;;;;;;5042858;28;20033;-77
2024/01/09 13:25:52;;;;;;;3.03;2.40;;;4.40;62.90;;;;;;5075245;28;20550;-77
2024/01/09 13:28:18;;;;;;;2.87;2.10;;;4.40;63.00;;;;;;5041037;28;20049;-77
2024/01/09 13:30:43;;;;;;;1.88;1.77;;;4.40;62.90;;;;;;5020269;28;20696;-77
2024/01/09 13:33:09;;;;;;;3.97;2.10;;;4.40;62.90;;;;;;5053527;28;20463;-76
2024/01/09 13:35:36;;;;;;;3.35;1.92;;;4.40;62.80;;;;;;5040463;28;20522;-77
2024/01/09 13:38:05;;;;;;;4.05;2.33;;;4.40;62.60;;;;;;5042022;28;20041;-75
2024/01/09 13:40:35;;;;;;;4.75;2.28;;;4.40;62.60;;;;;;5021989;28;20037;-75
2024/01/09 13:43:03;;;;;;;3.17;2.00;;;4.40;62.60;;;;;;5037031;28;20535;-75
2024/01/09 13:45:29;;;;;;;1.90;1.67;;;4.40;62.60;;;;;;5036690;28;20071;-75
2024/01/09 13:47:55;;;;;;;2.33;1.92;;;4.40;62.60;;;;;;5038936;28;20401;-74
2024/01/09 13:50:23;;;;;;;4.70;2.00;;;4.50;62.80;;;;;;5037482;28;20041;-75
2024/01/09 13:52:49;;;;;;;;;;;4.40;62.60;;;;;;5039585;28;20044;-75
2024/01/09 13:55:14;;;;;;;2.60;1.98;;;4.40;62.00;;;;;;5039191;28;19916;-75
2024/01/09 13:57:42;;;;;;;2.35;2.15;;;4.50;62.70;;;;;;5023516;28;20479;-75
2024/01/09 14:00:12;;;;;;;1.88;1.73;;;4.50;62.50;;;;;;5050388;28;20052;-75
2024/01/09 14:02:39;;;;;;;3.13;1.60;;;4.40;62.60;;;;;;5040882;28;20106;-75
2024/01/09 14:05:06;;;;;;;2.85;1.70;;;4.50;62.80;;;;;;5018219;28;20041;-75
2024/01/09 14:07:34;;;;;;;2.72;1.60;;;4.50;62.60;;;;;;5036240;28;20068;-75
2024/01/09 14:10:00;;;;;;;2.03;1.67;;;4.50;62.60;;;;;;5037115;28;20041;-75
2024/01/09 14:12:27;;;;;;;1.73;1.58;;;4.50;62.50;;;;;;5072027;28;20525;-75
2024/01/09 14:14:52;;;;;;;2.95;2.00;;;4.50;62.60;;;;;;5070632;28;20056;-75
2024/01/09 14:17:18;;;;;;;6.07;1.98;;;4.50;62.60;;;;;;5072447;28;20045;-75
2024/01/09 14:19:44;;;;;;;2.10;1.88;;;4.50;62.40;;;;;;5042073;28;20120;-75
2024/01/09 14:22:10;;;;;;;3.38;2.20;;;4.50;62.60;;;;;;5071729;28;20051;-74
2024/01/09 14:24:36;;;;;;;3.22;2.28;;;4.50;62.50;;;;;;5041880;28;20033;-75
2024/01/09 14:27:03;;;;;;;3.38;1.88;;;4.50;62.50;;;;;;5038136;28;20495;-75
2024/01/09 14:29:29;;;;;;;2.67;1.90;;;4.50;62.70;;;;;;5014461;28;20045;-75
2024/01/09 14:31:55;;;;;;;1.88;1.70;;;4.50;62.70;;;;;;5012137;28;20038;-75
2024/01/09 14:34:21;;;;;;;1.75;1.65;;;4.50;62.60;;;;;;5054768;28;20504;-75
2024/01/09 14:36:46;;;;;;;3.00;1.70;;;4.50;62.70;;;;;;5039478;28;20055;-74
2024/01/09 14:39:14;;;;;;;2.35;1.85;;;4.50;62.60;;;;;;5036867;28;20052;-75
2024/01/09 14:41:40;;;;;;;2.05;1.85;;;4.50;62.50;;;;;;5022102;28;20040;-74
2024/01/09 14:44:05;;;;;;;1.48;1.38;;;4.50;62.50;;;;;;5034927;28;20396;-75
2024/01/09 14:46:31;;;;;;;2.30;1.60;;;4.50;62.50;;;;;;5041089;28;20034;-76
2024/01/09 14:48:57;;;;;;;2.70;1.55;;;4.50;62.40;;;;;;5040057;28;20041;-76
2024/01/09 14:51:23;;;;;;;1.80;1.55;;;4.50;62.40;;;;;;5073651;28;20032;-75
2024/01/09 14:53:48;;;;;;;2.95;1.63;;;4.50;62.30;;;;;;5041091;28;20040;-76
2024/01/09 14:56:21;;;;;;;3.67;1.77;;;4.50;62.30;;;;;;5019951;28;20045;-75
2024/01/09 14:58:47;;;;;;;1.90;0.90;;;4.50;62.20;;;;;;5039453;28;20571;-76
2024/01/09 15:01:16;;;;;;;1.48;1.33;;;4.60;62.30;;;;;;5040496;28;20119;-76
2024/01/09 15:03:45;;;;;;;2.88;1.38;;;4.50;62.20;;;;;;5022202;28;20033;-76
2024/01/09 15:06:11;;;;;;;1.77;1.20;;;4.50;62.20;;;;;;5021584;28;20471;-75
2024/01/09 15:08:38;;;;;;;1.75;1.42;;;4.50;62.20;;;;;;5031927;28;20033;-75
2024/01/09 15:11:04;;;;;;;2.17;1.42;;;4.60;62.40;;;;;;5021690;28;20052;-75
2024/01/09 15:13:30;;;;;;;2.88;1.63;;;4.60;62.40;;;;;;5037973;28;20160;-76
2024/01/09 15:15:55;;;;;;;1.27;1.17;;;4.60;62.20;;;;;;5023429;28;20488;-75
2024/01/09 15:18:21;;;;;;;1.77;1.52;;;4.60;62.40;;;;;;5036254;28;20073;-77
2024/01/09 15:20:47;;;;;;;2.92;1.30;;;4.60;62.50;;;;;;5036824;28;20044;-76
2024/01/09 15:23:13;;;;;;;1.38;1.27;;;4.60;62.20;;;;;;5018282;28;20067;-75
2024/01/09 15:25:38;;;;;;;1.38;1.20;;;4.60;62.40;;;;;;5034244;28;20512;-76
2024/01/09 15:28:05;;;;;;;1.45;1.35;;;4.60;62.60;;;;;;5072658;28;20044;-76
2024/01/09 15:30:30;;;;;;;3.30;1.20;;;4.60;62.60;;;;;;5021926;28;20098;-76
2024/01/09 15:32:56;;;;;;;1.88;1.17;;;4.60;62.80;;;;;;5019435;28;20045;-77
2024/01/09 15:35:23;;;;;;;1.50;1.40;;;4.70;62.80;;;;;;5073748;28;20049;-77
2024/01/09 15:37:50;;;;;;;2.47;1.52;;;4.70;62.70;;;;;;5037729;28;20079;-76
2024/01/09 15:40:15;;;;;;;2.25;1.40;;;4.70;62.70;;;;;;5041201;28;20493;-76
2024/01/09 15:42:41;;;;;;;1.88;1.40;;;4.70;62.60;;;;;;5022154;28;20040;-76
2024/01/09 15:45:11;;;;;;;1.45;1.30;;;4.70;62.80;;;;;;5020604;28;20037;-75
2024/01/09 15:47:36;;;;;;;1.88;1.38;;;4.70;62.80;;;;;;5021447;28;20036;-74
2024/01/09 15:50:02;;;;;;;4.55;1.52;;;4.70;63.10;;;;;;5036181;28;20048;-75
2024/01/09 15:52:29;;;;;;;1.23;1.08;;;4.70;63.10;;;;;;5040311;28;20069;-75
2024/01/09 15:54:54;;;;;;;1.55;1.38;;;4.70;63.10;;;;;;5038045;28;20037;-75
2024/01/09 15:57:20;;;;;;;1.90;1.55;;;4.70;63.00;;;;;;5071560;28;20126;-74
2024/01/09 15:59:46;;;;;;;2.17;1.60;;;4.80;63.10;;;;;;5038344;28;20125;-75
2024/01/09 16:02:12;;;;;;;2.30;1.40;;;4.70;62.90;;;;;;5036560;28;20064;-74
2024/01/09 16:04:42;;;;;;;3.50;1.60;;;4.80;63.20;;;;;;5021537;28;20041;-74
2024/01/09 16:07:08;;;;;;;2.78;1.55;;;4.80;63.40;;;;;;5068881;28;20038;-77
2024/01/09 16:09:36;;;;;;;1.88;1.63;;;4.80;63.30;;;;;;5017791;28;20037;-75
2024/01/09 16:12:01;;;;;;;2.30;1.30;;;4.80;63.40;;;;;;5038721;28;20489;-74
2024/01/09 16:14:28;;;;;;;2.10;1.33;;;4.80;63.30;;;;;;5039531;28;20044;-75
2024/01/09 16:16:54;;;;;;;1.83;1.52;;;4.80;63.10;;;;;;5021624;28;20044;-75
2024/01/09 16:19:20;;;;;;;2.15;1.60;;;4.80;63.10;;;;;;5041874;28;20029;-74
2024/01/09 16:21:46;;;;;;;2.40;1.75;;;4.80;63.10;;;;;;5032693;28;20034;-74
2024/01/09 16:24:11;;;;;;;2.40;2.20;;;4.70;63.00;;;;;;5049322;28;20242;-74
2024/01/09 16:26:40;;;;;;;3.20;1.70;;;4.70;63.10;;;;;;5021711;28;20401;-74
2024/01/09 16:29:06;;;;;;;1.52;1.40;;;4.70;63.10;;;;;;5039781;28;20033;-74
2024/01/09 16:31:32;;;;;;;1.88;1.65;;;4.70;63.10;;;;;;5023704;28;20052;-74
2024/01/09 16:33:57;;;;;;;1.50;1.40;;;4.70;63.30;;;;;;5073815;28;20038;-74
2024/01/09 16:36:25;;;;;;;1.77;1.67;;;4.70;63.30;;;;;;5026517;28;20033;-74
2024/01/09 16:38:51;;;;;;;;;;;4.60;63.40;;;;;;5040962;28;20045;-74
2024/01/09 16:41:17;;;;;;;3.30;1.80;;;4.60;63.10;;;;;;5034747;28;19996;-74
2024/01/09 16:43:43;;;;;;;2.25;1.77;;;4.60;63.40;;;;;;5041355;28;20116;-74
2024/01/09 16:46:08;;;;;;;2.00;1.70;;;4.60;63.40;;;;;;5047461;28;20049;-74
2024/01/09 16:48:34;;;;;;;2.08;1.92;;;4.60;63.60;;;;;;5065041;28;20099;-76
2024/01/09 16:51:01;;;;;;;1.85;1.70;;;4.60;63.60;;;;;;5035132;28;20045;-75
2024/01/09 16:53:26;;;;;;;4.15;2.00;;;4.60;63.70;;;;;;5040597;28;20041;-75
2024/01/09 16:55:54;;;;;;;2.85;2.15;;;4.60;63.80;;;;;;5043861;28;20041;-75
2024/01/09 16:58:23;;;;;;;3.70;1.90;;;4.60;63.90;;;;;;5022802;28;20132;-74
2024/01/09 17:00:49;;;;;;;6.65;2.67;;;4.60;63.90;;;;;;5028094;28;20029;-74
2024/01/09 17:03:15;;;;;;;3.13;2.10;;;4.50;64.00;;;;;;5017148;28;20052;-74
2024/01/09 17:05:44;;;;;;;4.53;2.67;;;4.50;64.30;;;;;;5036003;28;20044;-76
2024/01/09 17:08:10;;;;;;;3.33;2.47;;;4.60;65.30;;;;;;5038864;28;20124;-76
2024/01/09 17:10:36;;;;;;;2.90;2.30;;;4.60;64.60;;;;;;5065463;28;20576;-76
2024/01/09 17:13:03;;;;;;;2.92;2.17;;;4.50;64.70;;;;;;5029082;28;20053;-76
2024/01/09 17:15:29;;;;;;;2.30;2.00;;;4.60;64.70;;;;;;5031696;28;20413;-76
2024/01/09 17:17:55;;;;;;;2.88;1.83;;;4.60;64.60;;;;;;5033541;28;20041;-76
2024/01/09 17:20:21;;;;;;;2.80;2.30;;;4.60;64.80;;;;;;5033930;28;20041;-76
2024/01/09 17:22:49;;;;;;;2.67;2.45;;;4.70;64.90;;;;;;5042633;28;20095;-76
2024/01/09 17:25:15;;;;;;;2.80;2.33;;;4.70;65.00;;;;;;5037352;28;20040;-76
2024/01/09 17:27:41;;;;;;;2.92;2.30;;;4.70;65.10;;;;;;5025352;28;20488;-76
2024/01/09 17:30:09;;;;;;;3.13;2.20;;;4.70;65.10;;;;;;5040320;28;20039;-76
2024/01/09 17:32:35;;;;;;;2.72;2.00;;;4.80;65.10;;;;;;5019242;28;20088;-76
2024/01/09 17:35:01;;;;;;;3.15;2.50;;;4.80;65.10;;;;;;5034362;28;20040;-76
2024/01/09 17:37:27;;;;;;;4.22;2.38;;;4.80;65.20;;;;;;5038594;28;20104;-76
2024/01/09 17:39:52;;;;;;;2.45;1.90;;;4.80;65.30;;;;;;5031578;28;20473;-76
2024/01/09 17:42:18;;;;;;;2.85;2.55;;;4.80;65.30;;;;;;5028320;28;20034;-76
2024/01/09 17:44:44;;;;;;;2.50;2.30;;;4.90;65.50;;;;;;5063859;28;20037;-76
2024/01/09 17:47:09;;;;;;;3.28;2.00;;;4.90;65.50;;;;;;5029389;28;20404;-76
2024/01/09 17:49:35;;;;;;;4.85;2.22;;;4.90;65.50;;;;;;5014408;28;20378;-76
2024/01/09 17:52:01;;;;;;;3.08;2.60;;;4.90;65.40;;;;;;5031559;28;20503;-76
2024/01/09 17:54:26;;;;;;;5.43;2.50;;;4.90;65.50;;;;;;5031672;28;20045;-76
2024/01/09 17:56:52;;;;;;;3.35;2.60;;;4.90;65.40;;;;;;5064534;28;20050;-76
2024/01/09 17:59:17;;;;;;;4.25;2.65;;;5.00;65.60;;;;;;5030893;28;20045;-76
2024/01/09 18:01:44;;;;;;;3.20;2.60;;;5.00;65.50;;;;;;5028070;28;20077;-76
2024/01/09 18:04:19;;;;;;;3.33;2.67;;;5.00;65.40;;;;;;5027165;28;20038;-76
2024/01/09 18:06:47;;;;;;;3.05;2.72;;;5.00;65.50;;;;;;5031888;28;20033;-76
2024/01/09 18:09:24;;;;;;;2.92;2.72;;;5.00;65.40;;;;;;5014020;28;20065;-76
2024/01/09 18:11:51;;;;;;;3.85;3.17;;;5.00;65.50;;;;;;5014197;28;20393;-76
2024/01/09 18:14:18;;;;;;;3.97;3.00;;;5.00;65.50;;;;;;5063628;28;20065;-76
2024/01/09 18:16:47;;;;;;;4.72;3.17;;;5.00;65.50;;;;;;5030482;28;20069;-76
2024/01/09 18:19:14;;;;;;;6.15;3.90;;;5.00;65.50;;;;;;5047684;28;20120;-76
2024/01/09 18:21:42;;;;;;;3.28;2.97;;;5.00;65.50;;;;;;5019170;28;20049;-77
2024/01/09 18:24:09;;;;;;;4.90;3.35;;;5.00;65.60;;;;;;5017649;28;20247;-76
2024/01/09 18:26:36;;;;;;;4.28;2.83;;;5.00;65.60;;;;;;5034355;28;20041;-76
2024/01/09 18:29:02;;;;;;;3.38;2.78;;;5.00;65.70;;;;;;5038993;28;20041;-76
2024/01/09 18:31:28;;;;;;;3.50;3.20;;;5.00;65.70;;;;;;5020982;28;20535;-76
2024/01/09 18:33:54;;;;;;;6.13;3.65;;;4.90;65.70;;;;;;5034861;28;20172;-76
2024/01/09 18:36:19;;;;;;;3.35;2.88;;;4.90;65.70;;;;;;5038964;28;20072;-76
2024/01/09 18:38:45;;;;;;;4.05;3.55;;;4.90;65.90;;;;;;5015654;28;20036;-76
2024/01/09 18:41:11;;;;;;;4.40;3.47;;;4.90;65.80;;;;;;5032304;28;20038;-76
2024/01/09 18:43:36;;;;;;;5.03;4.03;;;4.90;66.00;;;;;;5033747;28;20048;-76
2024/01/09 18:46:04;;;;;;;4.35;3.40;;;4.90;66.00;;;;;;5035507;28;20025;-76
2024/01/09 18:48:29;;;;;;;3.53;3.22;;;4.80;66.00;;;;;;5034768;28;20216;-76
2024/01/09 18:50:57;;;;;;;4.25;3.80;;;4.80;66.20;;;;;;5038722;28;20048;-76
2024/01/09 18:53:22;;;;;;;5.15;3.90;;;4.80;66.20;;;;;;5023143;28;20385;-76
2024/01/09 18:55:48;;;;;;;5.32;3.38;;;4.80;66.30;;;;;;5032472;28;20037;-76
2024/01/09 18:58:14;;;;;;;4.78;3.13;;;4.80;66.40;;;;;;5031292;28;20089;-76
2024/01/09 19:00:39;;;;;;;3.72;3.42;;;4.80;66.50;;;;;;5034224;28;20045;-76
2024/01/09 19:03:05;;;;;;;3.47;3.03;;;4.80;66.50;;;;;;5030948;28;20038;-76
2024/01/09 19:05:31;;;;;;;4.38;3.50;;;4.80;66.60;;;;;;5024976;28;20493;-76
2024/01/09 19:07:57;;;;;;;4.88;3.85;;;4.80;66.60;;;;;;5030441;28;20042;-77
2024/01/09 19:10:22;;;;;;;3.75;3.40;;;4.90;67.50;;;;;;5026802;28;20041;-76
2024/01/09 19:12:49;;;;;;;3.72;3.28;;;4.90;66.80;;;;;;5028152;28;20506;-77
2024/01/09 19:15:17;;;;;;;3.90;3.35;;;4.90;66.80;;;;;;5012247;28;20045;-77
2024/01/09 19:17:43;;;;;;;5.57;3.90;;;4.90;66.80;;;;;;5012951;28;20056;-77
2024/01/09 19:20:12;;;;;;;5.68;4.13;;;4.80;66.80;;;;;;5012712;28;20042;-76
2024/01/09 19:22:38;;;;;;;4.75;3.42;;;4.90;66.90;;;;;;5029135;28;20516;-76
2024/01/09 19:25:05;;;;;;;4.72;3.53;;;4.80;66.90;;;;;;5012511;28;20041;-77
2024/01/09 19:27:31;;;;;;;4.13;3.53;;;4.90;67.00;;;;;;5028576;28;20045;-77
2024/01/09 19:29:57;;;;;;;3.83;3.40;;;4.80;67.00;;;;;;5028706;28;20124;-77
2024/01/09 19:32:24;;;;;;;6.18;3.95;;;4.80;67.00;;;;;;5028405;28;20060;-77
2024/01/09 19:34:50;;;;;;;4.70;3.85;;;4.80;67.10;;;;;;5028995;28;20053;-77
2024/01/09 19:37:16;;;;;;;4.40;4.00;;;4.80;67.20;;;;;;5029246;28;20103;-77
2024/01/09 19:39:44;;;;;;;4.70;4.18;;;4.80;67.30;;;;;;5044882;28;20432;-77
2024/01/09 19:42:10;;;;;;;4.22;3.80;;;4.80;67.30;;;;;;5013240;28;20584;-77
2024/01/09 19:44:36;;;;;;;7.60;4.38;;;4.70;67.20;;;;;;5029151;28;20038;-76
2024/01/09 19:47:01;;;;;;;5.20;4.00;;;4.70;67.30;;;;;;5030258;28;20041;-77
2024/01/09 19:49:29;;;;;;;4.95;3.63;;;4.70;67.40;;;;;;5013819;28;20485;-77
2024/01/09 19:51:55;;;;;;;4.90;3.63;;;4.70;67.50;;;;;;5028535;28;20504;-77
2024/01/09 19:54:21;;;;;;;5.35;4.38;;;4.70;67.50;;;;;;5030693;28;20060;-76
2024/01/09 19:56:46;;;;;;;4.53;3.80;;;4.70;67.50;;;;;;5033715;28;20041;-76
2024/01/09 19:59:12;;;;;;;4.93;4.15;;;4.70;67.50;;;;;;5013748;28;20118;-77
2024/01/09 20:01:43;;;;;;;4.95;4.00;;;4.70;67.50;;;;;;5032980;28;20052;-77
2024/01/09 20:04:09;;;;;;;4.63;4.15;;;4.70;67.60;;;;;;5035103;28;20038;-76
2024/01/09 20:06:37;;;;;;;4.68;4.20;;;4.70;67.70;;;;;;5030075;28;20041;-77
2024/01/09 20:09:03;;;;;;;5.10;4.10;;;4.70;67.80;;;;;;5029646;28;20037;-77
2024/01/09 20:11:29;;;;;;;4.78;4.20;;;4.70;67.80;;;;;;5045452;28;20401;-76
2024/01/09 20:13:58;;;;;;;4.25;3.85;;;4.70;67.80;;;;;;5037698;28;20033;-76
2024/01/09 20:16:25;;;;;;;5.35;4.65;;;4.80;67.90;;;;;;5036671;28;20045;-76
2024/01/09 20:18:52;;;;;;;5.65;4.53;;;4.80;68.00;;;;;;5033520;28;20496;-76
2024/01/09 20:21:18;;;;;;;5.15;4.47;;;4.80;67.90;;;;;;5032956;28;20288;-76
2024/01/09 20:23:44;;;;;;;6.00;4.60;;;4.80;68.00;;;;;;5039748;28;20044;-76
2024/01/09 20:26:27;;;;;;;5.03;4.53;;;4.80;68.70;;;;;;5062866;28;20049;-76
2024/01/09 20:28:53;;;;;;;4.50;4.07;;;4.80;68.10;;;;;;5034465;28;20041;-77
2024/01/09 20:31:20;;;;;;;4.43;3.80;;;4.80;68.00;;;;;;5035025;28;20392;-76
2024/01/09 20:33:46;;;;;;;5.60;4.43;;;4.80;68.00;;;;;;5039811;28;20122;-76
2024/01/09 20:36:12;;;;;;;5.93;4.28;;;4.80;68.00;;;;;;5035477;28;20102;-76
2024/01/09 20:38:38;;;;;;;4.78;4.30;;;4.80;68.80;;;;;;5036903;28;20558;-76
2024/01/09 20:41:05;;;;;;;6.72;4.82;;;4.80;68.10;;;;;;5033655;28;20041;-77
2024/01/09 20:43:31;;;;;;;5.53;4.78;;;4.80;68.10;;;;;;5039123;28;20147;-76
2024/01/09 20:45:57;;;;;;;7.50;5.63;;;4.80;68.20;;;;;;5040676;28;20548;-76
2024/01/09 20:48:23;;;;;;;6.00;4.68;;;4.70;68.90;;;;;;5029651;28;20045;-77
2024/01/09 20:50:50;;;;;;;6.78;5.32;;;4.80;68.20;;;;;;5030012;28;20304;-77
2024/01/09 20:53:18;;;;;;;7.20;5.28;;;4.70;68.20;;;;;;5015820;28;20142;-76